createdAt,value
2018-10-06T00:01:41.389Z,101077.73
2018-10-06T00:04:11.187Z,101071.70
2018-10-06T00:06:41.019Z,101072.01
2018-10-06T00:09:10.849Z,101063.47
2018-10-06T00:11:40.861Z,101070.27
2018-10-06T00:14:10.659Z,101065.98
2018-10-06T00:16:40.677Z,101066.84
2018-10-06T00:19:10.580Z,101061.62
2018-10-06T00:21:40.624Z,101061.41
2018-10-06T00:24:10.492Z,101063.88
2018-10-06T00:26:40.413Z,101058.59
2018-10-06T00:29:10.351Z,101058.69
2018-10-06T00:31:40.258Z,101057.14
2018-10-06T00:34:10.284Z,101052.92
2018-10-06T00:36:40.440Z,101053.16
2018-10-06T00:39:10.373Z,101047.59
2018-10-06T00:41:40.213Z,101050.48
2018-10-06T00:44:09.974Z,101045.96
2018-10-06T00:46:40.032Z,101051.31
2018-10-06T00:49:10.010Z,101047.86
2018-10-06T00:51:39.976Z,101050.78
2018-10-06T00:54:09.939Z,101048.64
2018-10-06T00:56:40.216Z,101048.19
2018-10-06T00:59:10.212Z,101044.71
2018-10-06T01:01:40.133Z,101048.52
2018-10-06T01:04:10.989Z,101044.86
2018-10-06T01:06:40.946Z,101039.81
2018-10-06T01:09:11.621Z,101037.45
2018-10-06T01:11:41.888Z,101038.05
2018-10-06T01:14:11.824Z,101032.73
2018-10-06T01:16:41.728Z,101026.84
2018-10-06T01:19:11.633Z,101028.21
2018-10-06T01:21:41.969Z,101025.84
2018-10-06T01:24:11.881Z,101019.53
2018-10-06T01:26:41.789Z,101022.44
2018-10-06T01:29:11.672Z,101016.11
2018-10-06T01:31:41.502Z,101018.05
2018-10-06T01:34:11.300Z,101015.61
2018-10-06T01:36:41.410Z,101010.31
2018-10-06T01:39:11.493Z,101007.64
2018-10-06T01:41:41.250Z,100999.56
2018-10-06T01:44:11.197Z,100991.09
2018-10-06T01:46:41.064Z,100992.52
2018-10-06T01:49:10.909Z,100985.91
2018-10-06T01:51:40.865Z,100984.58
2018-10-06T01:54:10.893Z,100988.29
2018-10-06T01:56:40.746Z,100981.34
2018-10-06T01:59:10.670Z,100979.02
2018-10-06T02:01:40.570Z,100973.41
2018-10-06T02:04:10.697Z,100972.87
2018-10-06T02:06:40.617Z,100971.53
2018-10-06T02:09:10.607Z,100971.77
2018-10-06T02:11:40.457Z,100968.65
2018-10-06T02:14:10.290Z,100972.13
2018-10-06T02:16:40.202Z,100971.86
2018-10-06T02:19:09.938Z,100970.88
2018-10-06T02:21:39.973Z,100969.77
2018-10-06T02:24:09.789Z,100963.45
2018-10-06T02:26:39.930Z,100966.36
2018-10-06T02:29:09.981Z,100960.77
2018-10-06T02:31:39.863Z,100951.44
2018-10-06T02:34:09.775Z,100953.61
2018-10-06T02:36:40.084Z,100952.55
2018-10-06T02:39:10.006Z,100956.55
2018-10-06T02:41:39.917Z,100951.20
2018-10-06T02:44:09.914Z,100944.52
2018-10-06T02:46:39.818Z,100946.09
2018-10-06T02:49:09.702Z,100943.96
2018-10-06T02:51:39.753Z,100940.22
2018-10-06T02:54:09.505Z,100933.03
2018-10-06T02:56:39.348Z,100936.23
2018-10-06T02:59:09.571Z,100933.54
2018-10-06T03:01:39.323Z,100936.72
2018-10-06T03:04:09.416Z,100935.94
2018-10-06T03:06:39.207Z,100931.40
2018-10-06T03:09:10.049Z,100941.85
2018-10-06T03:11:40.041Z,100933.27
2018-10-06T03:14:10.060Z,100926.86
2018-10-06T03:16:39.979Z,100931.64
2018-10-06T03:19:09.788Z,100926.88
2018-10-06T03:21:39.733Z,100926.29
2018-10-06T03:24:09.770Z,100924.72
2018-10-06T03:26:39.729Z,100929.83
2018-10-06T03:29:09.693Z,100920.47
2018-10-06T03:31:39.460Z,100922.58
2018-10-06T03:34:09.864Z,100916.94
2018-10-06T03:36:39.804Z,100913.44
2018-10-06T03:39:09.862Z,100909.98
2018-10-06T03:41:39.637Z,100909.72
2018-10-06T03:44:09.704Z,100907.11
2018-10-06T03:46:39.889Z,100903.30
2018-10-06T03:49:09.945Z,100896.89
2018-10-06T03:51:39.980Z,100894.52
2018-10-06T03:54:11.726Z,100891.34
2018-10-06T03:56:43.698Z,100887.83
2018-10-06T03:59:14.257Z,100888.64
2018-10-06T04:01:44.278Z,100886.50
2018-10-06T04:04:14.247Z,100878.48
2018-10-06T04:06:44.416Z,100873.41
2018-10-06T04:09:14.628Z,100882.48
2018-10-06T04:11:44.624Z,100876.64
2018-10-06T04:14:14.448Z,100876.91
2018-10-06T04:16:44.484Z,100869.48
2018-10-06T04:19:14.318Z,100866.01
2018-10-06T04:21:46.700Z,100861.53
2018-10-06T04:24:17.940Z,100855.11
2018-10-06T04:26:47.905Z,100857.10
2018-10-06T04:29:17.748Z,100858.44
2018-10-06T04:31:47.520Z,100848.88
2018-10-06T04:34:17.555Z,100846.50
2018-10-06T04:36:48.364Z,100843.63
2018-10-06T04:39:18.465Z,100840.66
2018-10-06T04:41:48.349Z,100833.80
2018-10-06T04:44:18.177Z,100831.77
2018-10-06T04:46:48.044Z,100834.47
2018-10-06T04:49:18.024Z,100833.64
2018-10-06T04:51:48.232Z,100822.45
2018-10-06T04:54:18.081Z,100824.14
2018-10-06T04:56:48.099Z,100821.95
2018-10-06T04:59:17.982Z,100821.66
2018-10-06T05:01:48.108Z,100824.89
2018-10-06T05:04:18.037Z,100819.55
2018-10-06T05:06:48.093Z,100822.75
2018-10-06T05:09:17.977Z,100820.61
2018-10-06T05:11:47.856Z,100815.83
2018-10-06T05:14:18.090Z,100816.66
2018-10-06T05:16:47.871Z,100816.13
2018-10-06T05:19:17.654Z,100817.47
2018-10-06T05:21:47.653Z,100815.86
2018-10-06T05:24:17.665Z,100810.84
2018-10-06T05:26:47.735Z,100806.84
2018-10-06T05:29:17.585Z,100807.64
2018-10-06T05:31:47.952Z,100806.84
2018-10-06T05:34:18.223Z,100809.27
2018-10-06T05:36:48.387Z,100808.73
2018-10-06T05:39:18.500Z,100809.48
2018-10-06T05:41:48.879Z,100810.37
2018-10-06T05:44:19.060Z,100801.26
2018-10-06T05:46:48.938Z,100804.14
2018-10-06T05:49:18.972Z,100811.62
2018-10-06T05:51:48.944Z,100807.61
2018-10-06T05:54:18.865Z,100809.48
2018-10-06T05:56:48.780Z,100805.48
2018-10-06T05:59:18.997Z,100802.27
2018-10-06T06:01:49.121Z,100809.63
2018-10-06T06:04:19.167Z,100806.96
2018-10-06T06:06:49.160Z,100809.63
2018-10-06T06:09:19.313Z,100803.67
2018-10-06T06:11:49.255Z,100805.75
2018-10-06T06:14:19.636Z,100801.41
2018-10-06T06:16:49.460Z,100803.75
2018-10-06T06:19:19.596Z,100802.56
2018-10-06T06:21:49.420Z,100805.95
2018-10-06T06:24:19.921Z,100804.48
2018-10-06T06:26:49.757Z,100804.66
2018-10-06T06:29:19.668Z,100810.61
2018-10-06T06:31:49.632Z,100810.44
2018-10-06T06:34:19.615Z,100809.77
2018-10-06T06:36:49.559Z,100807.47
2018-10-06T06:39:19.789Z,100808.36
2018-10-06T06:41:49.658Z,100807.08
2018-10-06T06:44:19.806Z,100807.09
2018-10-06T06:46:49.609Z,100803.70
2018-10-06T06:49:19.652Z,100796.05
2018-10-06T06:51:49.707Z,100799.06
2018-10-06T06:54:19.745Z,100799.91
2018-10-06T06:56:49.752Z,100793.55
2018-10-06T06:59:19.884Z,100791.51
2018-10-06T07:01:49.825Z,100790.23
2018-10-06T07:04:20.144Z,100789.98
2018-10-06T07:06:50.116Z,100786.51
2018-10-06T07:09:20.010Z,100781.92
2018-10-06T07:11:49.966Z,100776.30
2018-10-06T07:14:19.766Z,100773.04
2018-10-06T07:16:49.752Z,100770.88
2018-10-06T07:19:20.238Z,100762.78
2018-10-06T07:21:50.144Z,100765.50
2018-10-06T07:24:19.924Z,100757.42
2018-10-06T07:26:50.001Z,100758.98
2018-10-06T07:29:19.859Z,100753.00
2018-10-06T07:31:49.854Z,100751.04
2018-10-06T07:34:19.852Z,100752.55
2018-10-06T07:36:49.601Z,100749.23
2018-10-06T07:39:19.982Z,100753.20
2018-10-06T07:41:49.994Z,100755.02
2018-10-06T07:44:19.958Z,100752.32
2018-10-06T07:46:49.969Z,100751.19
2018-10-06T07:49:19.998Z,100759.78
2018-10-06T07:51:49.861Z,100765.33
2018-10-06T07:54:19.890Z,100762.72
2018-10-06T07:56:50.207Z,100764.16
2018-10-06T07:59:20.273Z,100757.56
2018-10-06T08:01:50.284Z,100757.64
2018-10-06T08:04:20.340Z,100755.57
2018-10-06T08:06:50.381Z,100746.09
2018-10-06T08:09:20.352Z,100758.08
2018-10-06T08:11:50.485Z,100747.94
2018-10-06T08:14:20.410Z,100744.63
2018-10-06T08:16:50.283Z,100742.34
2018-10-06T08:19:20.359Z,100740.90
2018-10-06T08:21:50.197Z,100737.71
2018-10-06T08:24:20.155Z,100735.53
2018-10-06T08:26:49.980Z,100731.98
2018-10-06T08:29:19.853Z,100730.10
2018-10-06T08:31:49.816Z,100720.34
2018-10-06T08:34:19.734Z,100724.18
2018-10-06T08:36:49.570Z,100724.11
2018-10-06T08:39:19.788Z,100724.58
2018-10-06T08:41:49.613Z,100720.12
2018-10-06T08:44:19.462Z,100722.65
2018-10-06T08:46:49.368Z,100714.91
2018-10-06T08:49:19.396Z,100715.95
2018-10-06T08:51:51.248Z,100721.37
2018-10-06T08:54:21.049Z,100711.72
2018-10-06T08:56:51.060Z,100710.37
2018-10-06T08:59:21.395Z,100711.29
2018-10-06T09:01:51.437Z,100714.99
2018-10-06T09:04:21.782Z,100708.27
2018-10-06T09:06:51.965Z,100708.38
2018-10-06T09:09:22.033Z,100700.41
2018-10-06T09:11:52.176Z,100695.69
2018-10-06T09:14:22.201Z,100695.58
2018-10-06T09:16:52.491Z,100691.08
2018-10-06T09:19:22.654Z,100692.79
2018-10-06T09:21:52.620Z,100693.09
2018-10-06T09:24:22.661Z,100685.69
2018-10-06T09:26:52.584Z,100672.42
2018-10-06T09:29:22.585Z,100669.49
2018-10-06T09:31:52.448Z,100665.77
2018-10-06T09:34:22.336Z,100670.03
2018-10-06T09:36:52.303Z,100671.48
2018-10-06T09:39:22.258Z,100674.64
2018-10-06T09:41:52.098Z,100673.95
2018-10-06T09:44:22.003Z,100671.05
2018-10-06T09:46:52.495Z,100665.86
2018-10-06T09:49:22.473Z,100668.77
2018-10-06T09:51:52.297Z,100665.38
2018-10-06T09:54:22.445Z,100664.34
2018-10-06T09:56:52.280Z,100667.48
2018-10-06T09:59:22.327Z,100660.15
2018-10-06T10:01:57.277Z,100665.76
2018-10-06T10:04:27.220Z,100664.84
2018-10-06T10:06:57.193Z,100659.66
2018-10-06T10:09:27.161Z,100653.80
2018-10-06T10:11:57.102Z,100659.30
2018-10-06T10:14:27.098Z,100664.45
2018-10-06T10:16:57.013Z,100662.84
2018-10-06T10:19:26.896Z,100649.75
2018-10-06T10:21:56.960Z,100649.84
2018-10-06T10:24:26.829Z,100646.23
2018-10-06T10:26:57.086Z,100644.63
2018-10-06T10:29:27.118Z,100647.67
2018-10-06T10:31:56.970Z,100645.97
2018-10-06T10:34:26.978Z,100649.80
2018-10-06T10:36:57.126Z,100644.08
2018-10-06T10:39:27.125Z,100639.29
2018-10-06T10:41:57.282Z,100643.79
2018-10-06T10:44:27.208Z,100643.27
2018-10-06T10:46:57.428Z,100641.11
2018-10-06T10:49:27.321Z,100633.56
2018-10-06T10:51:57.324Z,100633.03
2018-10-06T10:54:27.379Z,100634.47
2018-10-06T10:56:57.324Z,100632.55
2018-10-06T10:59:27.305Z,100622.38
2018-10-06T11:01:57.104Z,100621.42
2018-10-06T11:04:27.133Z,100618.48
2018-10-06T11:06:57.012Z,100615.51
2018-10-06T11:09:26.936Z,100609.93
2018-10-06T11:11:56.989Z,100604.25
2018-10-06T11:14:26.835Z,100608.98
2018-10-06T11:16:56.629Z,100610.92
2018-10-06T11:19:26.599Z,100601.61
2018-10-06T11:21:56.616Z,100601.77
2018-10-06T11:24:26.467Z,100590.80
2018-10-06T11:26:56.697Z,100594.45
2018-10-06T11:29:26.761Z,100581.77
2018-10-06T11:31:56.919Z,100579.61
2018-10-06T11:34:26.986Z,100579.63
2018-10-06T11:36:57.295Z,100570.84
2018-10-06T11:39:27.077Z,100569.00
2018-10-06T11:41:57.110Z,100563.95
2018-10-06T11:44:27.052Z,100555.82
2018-10-06T11:46:57.442Z,100552.91
2018-10-06T11:49:27.276Z,100549.13
2018-10-06T11:51:57.117Z,100554.61
2018-10-06T11:54:27.201Z,100547.61
2018-10-06T11:56:57.054Z,100543.34
2018-10-06T11:59:27.130Z,100534.56
2018-10-06T12:01:56.999Z,100529.78
2018-10-06T12:04:26.953Z,100539.42
2018-10-06T12:06:56.846Z,100537.64
2018-10-06T12:09:26.618Z,100529.34
2018-10-06T12:11:56.505Z,100533.74
2018-10-06T12:14:26.512Z,100536.16
2018-10-06T12:16:56.503Z,100534.17
2018-10-06T12:19:26.492Z,100528.19
2018-10-06T12:21:56.507Z,100526.89
2018-10-06T12:24:26.568Z,100522.28
2018-10-06T12:26:56.433Z,100518.65
2018-10-06T12:29:26.561Z,100512.30
2018-10-06T12:31:56.560Z,100509.06
2018-10-06T12:34:26.298Z,100504.73
2018-10-06T12:36:56.140Z,100497.80
2018-10-06T12:39:26.028Z,100493.45
2018-10-06T12:41:55.899Z,100494.73
2018-10-06T12:44:25.829Z,100493.41
2018-10-06T12:46:55.970Z,100490.79
2018-10-06T12:49:25.980Z,100486.27
2018-10-06T12:51:55.853Z,100485.52
2018-10-06T12:54:25.848Z,100492.77
2018-10-06T12:56:55.777Z,100490.38
2018-10-06T12:59:25.685Z,100480.58
2018-10-06T13:01:55.636Z,100476.47
2018-10-06T13:04:25.501Z,100473.12
2018-10-06T13:06:55.501Z,100479.39
2018-10-06T13:09:25.275Z,100470.87
2018-10-06T13:11:55.106Z,100469.12
2018-10-06T13:14:24.983Z,100463.33
2018-10-06T13:16:54.878Z,100454.23
2018-10-06T13:19:24.805Z,100459.45
2018-10-06T13:21:54.878Z,100459.81
2018-10-06T13:24:24.843Z,100452.89
2018-10-06T13:26:54.782Z,100449.58
2018-10-06T13:29:25.012Z,100457.59
2018-10-06T13:31:55.023Z,100450.92
2018-10-06T13:34:24.882Z,100446.38
2018-10-06T13:36:55.772Z,100453.64
2018-10-06T13:39:25.933Z,100450.48
2018-10-06T13:41:55.909Z,100449.03
2018-10-06T13:44:25.692Z,100451.12
2018-10-06T13:46:55.837Z,100449.60
2018-10-06T13:49:25.848Z,100441.38
2018-10-06T13:51:56.089Z,100436.92
2018-10-06T13:54:26.216Z,100435.31
2018-10-06T13:56:56.079Z,100431.42
2018-10-06T13:59:26.180Z,100429.34
2018-10-06T14:01:56.295Z,100422.20
2018-10-06T14:04:26.386Z,100412.75
2018-10-06T14:06:56.202Z,100411.92
2018-10-06T14:09:26.189Z,100402.55
2018-10-06T14:11:56.180Z,100406.52
2018-10-06T14:14:26.287Z,100402.17
2018-10-06T14:16:56.098Z,100397.06
2018-10-06T14:19:25.926Z,100400.33
2018-10-06T14:21:55.929Z,100388.09
2018-10-06T14:24:26.107Z,100390.20
2018-10-06T14:26:55.992Z,100388.19
2018-10-06T14:29:26.057Z,100389.87
2018-10-06T14:31:55.914Z,100385.16
2018-10-06T14:34:25.880Z,100385.92
2018-10-06T14:36:55.667Z,100393.78
2018-10-06T14:39:25.747Z,100390.50
2018-10-06T14:41:55.878Z,100388.56
2018-10-06T14:44:25.893Z,100390.24
2018-10-06T14:46:56.409Z,100393.08
2018-10-06T14:49:26.599Z,100394.78
2018-10-06T14:51:56.613Z,100393.42
2018-10-06T14:54:26.650Z,100398.78
2018-10-06T14:56:56.591Z,100391.64
2018-10-06T14:59:26.528Z,100391.05
2018-10-06T15:01:56.591Z,100386.55
2018-10-06T15:04:26.621Z,100381.80
2018-10-06T15:06:56.460Z,100376.41
2018-10-06T15:09:26.341Z,100379.20
2018-10-06T15:11:56.177Z,100373.28
2018-10-06T15:14:26.008Z,100370.79
2018-10-06T15:16:56.110Z,100370.79
2018-10-06T15:19:25.974Z,100366.49
2018-10-06T15:21:56.068Z,100364.34
2018-10-06T15:24:26.101Z,100357.29
2018-10-06T15:26:55.875Z,100363.31
2018-10-06T15:29:25.991Z,100358.42
2018-10-06T15:31:56.101Z,100356.31
2018-10-06T15:34:26.058Z,100352.42
2018-10-06T15:36:55.792Z,100349.63
2018-10-06T15:39:25.654Z,100353.05
2018-10-06T15:41:55.540Z,100357.98
2018-10-06T15:44:25.507Z,100351.48
2018-10-06T15:46:55.505Z,100354.73
2018-10-06T15:49:25.328Z,100351.75
2018-10-06T15:51:55.375Z,100343.89
2018-10-06T15:54:25.267Z,100346.74
2018-10-06T15:56:55.303Z,100346.70
2018-10-06T15:59:25.387Z,100349.88
2018-10-06T16:01:55.203Z,100347.30
2018-10-06T16:04:25.046Z,100345.52
2018-10-06T16:06:55.415Z,100346.27
2018-10-06T16:09:25.423Z,100349.72
2018-10-06T16:11:55.315Z,100348.45
2018-10-06T16:14:25.201Z,100345.87
2018-10-06T16:16:55.606Z,100347.59
2018-10-06T16:19:25.501Z,100347.94
2018-10-06T16:21:55.273Z,100346.39
2018-10-06T16:24:25.028Z,100345.20
2018-10-06T16:26:54.893Z,100353.42
2018-10-06T16:29:25.043Z,100350.95
2018-10-06T16:31:55.259Z,100347.93
2018-10-06T16:34:25.168Z,100343.44
2018-10-06T16:36:55.161Z,100342.97
2018-10-06T16:39:25.049Z,100345.73
2018-10-06T16:41:55.008Z,100346.97
2018-10-06T16:44:24.983Z,100352.49
2018-10-06T16:46:54.831Z,100357.36
2018-10-06T16:49:24.950Z,100357.56
2018-10-06T16:51:54.805Z,100351.66
2018-10-06T16:54:24.759Z,100355.59
2018-10-06T16:56:54.759Z,100363.26
2018-10-06T16:59:25.097Z,100363.86
2018-10-06T17:01:55.003Z,100364.78
2018-10-06T17:04:24.947Z,100378.47
2018-10-06T17:06:54.866Z,100377.89
2018-10-06T17:09:24.745Z,100380.45
2018-10-06T17:11:54.819Z,100387.78
2018-10-06T17:14:24.754Z,100385.73
2018-10-06T17:16:54.615Z,100396.19
2018-10-06T17:19:24.616Z,100397.59
2018-10-06T17:21:54.549Z,100392.10
2018-10-06T17:24:24.477Z,100394.05
2018-10-06T17:26:54.288Z,100402.99
2018-10-06T17:29:24.339Z,100403.80
2018-10-06T17:31:54.244Z,100403.16
2018-10-06T17:34:24.362Z,100409.84
2018-10-06T17:36:54.349Z,100408.20
2018-10-06T17:39:24.296Z,100406.53
2018-10-06T17:41:54.328Z,100416.84
2018-10-06T17:44:24.875Z,100420.37
2018-10-06T17:46:54.842Z,100420.50
2018-10-06T17:49:24.731Z,100418.47
2018-10-06T17:51:54.535Z,100427.86
2018-10-06T17:54:24.528Z,100425.24
2018-10-06T17:56:54.699Z,100422.89
2018-10-06T17:59:24.836Z,100431.56
2018-10-06T18:01:55.308Z,100429.28
2018-10-06T18:04:25.692Z,100431.02
2018-10-06T18:06:55.597Z,100433.07
2018-10-06T18:09:25.570Z,100438.23
2018-10-06T18:11:55.356Z,100435.48
2018-10-06T18:14:25.544Z,100442.47
2018-10-06T18:16:55.513Z,100438.36
2018-10-06T18:19:25.485Z,100439.12
2018-10-06T18:21:55.814Z,100438.83
2018-10-06T18:24:25.823Z,100446.34
2018-10-06T18:26:55.794Z,100446.22
2018-10-06T18:29:26.004Z,100452.52
2018-10-06T18:31:55.884Z,100453.59
2018-10-06T18:34:25.932Z,100461.47
2018-10-06T18:36:56.142Z,100457.12
2018-10-06T18:39:26.316Z,100467.27
2018-10-06T18:41:56.119Z,100471.63
2018-10-06T18:44:26.101Z,100473.53
2018-10-06T18:46:56.133Z,100476.12
2018-10-06T18:49:26.086Z,100479.88
2018-10-06T18:51:55.836Z,100481.73
2018-10-06T18:54:25.850Z,100488.63
2018-10-06T18:56:55.865Z,100487.25
2018-10-06T18:59:25.798Z,100503.34
2018-10-06T19:01:55.769Z,100501.16
2018-10-06T19:04:25.919Z,100504.36
2018-10-06T19:06:55.677Z,100509.65
2018-10-06T19:09:25.497Z,100518.41
2018-10-06T19:11:55.472Z,100513.14
2018-10-06T19:14:25.625Z,100521.99
2018-10-06T19:16:56.013Z,100510.48
2018-10-06T19:19:26.126Z,100510.93
2018-10-06T19:21:56.134Z,100513.67
2018-10-06T19:24:25.978Z,100517.06
2018-10-06T19:26:55.872Z,100520.24
2018-10-06T19:29:25.934Z,100524.73
2018-10-06T19:31:55.694Z,100526.32
2018-10-06T19:34:26.144Z,100528.59
2018-10-06T19:36:56.093Z,100527.59
2018-10-06T19:39:26.238Z,100524.67
2018-10-06T19:41:56.316Z,100531.55
2018-10-06T19:44:26.275Z,100528.74
2018-10-06T19:46:56.659Z,100528.73
2018-10-06T19:49:26.553Z,100531.66
2018-10-06T19:51:56.473Z,100536.23
2018-10-06T19:54:26.420Z,100538.27
2018-10-06T19:56:56.193Z,100542.41
2018-10-06T19:59:26.130Z,100544.44
2018-10-06T20:01:56.259Z,100549.71
2018-10-06T20:04:26.262Z,100550.05
2018-10-06T20:06:56.227Z,100557.80
2018-10-06T20:09:26.152Z,100567.13
2018-10-06T20:11:56.127Z,100563.86
2018-10-06T20:14:26.150Z,100567.69
2018-10-06T20:16:56.188Z,100571.73
2018-10-06T20:19:26.118Z,100578.34
2018-10-06T20:21:55.978Z,100586.98
2018-10-06T20:24:25.957Z,100593.72
2018-10-06T20:26:55.919Z,100594.85
2018-10-06T20:29:25.717Z,100599.69
2018-10-06T20:31:55.721Z,100600.70
2018-10-06T20:34:25.714Z,100609.67
2018-10-06T20:36:55.649Z,100614.27
2018-10-06T20:39:25.664Z,100616.63
2018-10-06T20:41:55.654Z,100620.67
2018-10-06T20:44:25.609Z,100627.19
2018-10-06T20:46:55.659Z,100627.74
2018-10-06T20:49:25.675Z,100629.91
2018-10-06T20:51:55.639Z,100636.45
2018-10-06T20:54:25.515Z,100634.63
2018-10-06T20:56:55.268Z,100648.31
2018-10-06T20:59:25.150Z,100646.55
2018-10-06T21:01:54.953Z,100653.75
2018-10-06T21:04:25.053Z,100652.64
2018-10-06T21:06:55.152Z,100655.45
2018-10-06T21:09:25.333Z,100655.14
2018-10-06T21:11:55.377Z,100651.52
2018-10-06T21:14:25.516Z,100651.53
2018-10-06T21:16:55.576Z,100654.45
2018-10-06T21:19:25.550Z,100663.56
2018-10-06T21:21:55.384Z,100679.28
2018-10-06T21:24:25.233Z,100680.07
2018-10-06T21:26:55.175Z,100686.03
2018-10-06T21:29:25.317Z,100687.26
2018-10-06T21:31:55.196Z,100693.75
2018-10-06T21:34:25.241Z,100697.92
2018-10-06T21:36:55.371Z,100699.83
2018-10-06T21:39:25.388Z,100703.66
2018-10-06T21:41:55.389Z,100698.48
2018-10-06T21:44:25.338Z,100697.02
2018-10-06T21:46:55.249Z,100712.23
2018-10-06T21:49:25.123Z,100705.47
2018-10-06T21:51:55.137Z,100705.64
2018-10-06T21:54:25.194Z,100709.77
2018-10-06T21:56:54.992Z,100710.42
2018-10-06T21:59:25.101Z,100711.64
2018-10-06T22:01:55.163Z,100718.11
2018-10-06T22:04:25.157Z,100732.33
2018-10-06T22:06:55.317Z,100733.66
2018-10-06T22:09:25.216Z,100731.05
2018-10-06T22:11:54.964Z,100736.97
2018-10-06T22:14:24.971Z,100734.05
2018-10-06T22:16:55.004Z,100728.87
2018-10-06T22:19:24.849Z,100727.95
2018-10-06T22:21:54.790Z,100722.22
2018-10-06T22:24:24.526Z,100716.15
2018-10-06T22:26:54.589Z,100716.89
2018-10-06T22:29:24.857Z,100712.64
2018-10-06T22:31:54.480Z,100705.96
2018-10-06T22:34:24.551Z,100694.84
2018-10-06T22:36:54.569Z,100702.80
2018-10-06T22:39:24.313Z,100697.26
2018-10-06T22:41:54.285Z,100694.37
2018-10-06T22:44:24.315Z,100679.85
2018-10-06T22:46:54.235Z,100673.89
2018-10-06T22:49:24.049Z,100674.47
2018-10-06T22:51:54.381Z,100669.42
2018-10-06T22:54:24.467Z,100667.39
2018-10-06T22:56:54.812Z,100683.20
2018-10-06T22:59:24.797Z,100702.34
2018-10-06T23:01:54.688Z,100700.99
2018-10-06T23:04:24.535Z,100699.53
2018-10-06T23:06:54.544Z,100703.88
2018-10-06T23:09:24.360Z,100718.61
2018-10-06T23:11:54.144Z,100727.76
2018-10-06T23:14:24.065Z,100732.53
2018-10-06T23:16:53.929Z,100730.30
2018-10-06T23:19:23.857Z,100739.70
2018-10-06T23:21:53.744Z,100747.07
2018-10-06T23:24:23.680Z,100751.66
2018-10-06T23:26:53.848Z,100756.84
2018-10-06T23:29:23.704Z,100762.98
2018-10-06T23:31:53.812Z,100770.80
2018-10-06T23:34:23.824Z,100769.42
2018-10-06T23:36:54.057Z,100774.77
2018-10-06T23:39:23.882Z,100790.25
2018-10-06T23:41:53.939Z,100808.60
2018-10-06T23:44:23.813Z,100819.14
2018-10-06T23:46:53.677Z,100829.20
2018-10-06T23:49:23.637Z,100826.58
2018-10-06T23:51:53.687Z,100837.27
2018-10-06T23:54:23.607Z,100845.10
2018-10-06T23:56:53.357Z,100841.94
2018-10-06T23:59:23.352Z,100846.14
